Phoenix, AZ (85016)

2:57 PM MST on July 02, 2015 (GMT -0700)
Biltmore | | Change Station
CLOSE
Current Station
Personal Weather Station
Location: Phoenix, AZ
Elevation: 1230 ft
Nearby Weather Stations

Elev 1230 ft 33.52 °N, 112.03 °W | Updated 4 seconds ago

Clear
Clear
104.2 °F
Feels Like 104 °F
N
0.0
Wind Variable Wind from SE
Gusts 0.0 mph

Today
High -- | Low -- °F
--% Chance of Precip.
Yesterday
High -- | Low -- °F
Precip. -- in
5:22 AM 7:42 PM
Full, 99% visible
Pressure 29.74 in
Visibility 10.0 miles
Clouds Few 10000 ft
Scattered Clouds 25000 ft
Heat Index 104 °F
Dew Point 57 °F
Humidity 21%
Rainfall 0.00 in
Snow Depth Not available.
UV 6.0 out of 12
Pollen 3.90 out of 12
Air Quality Not available.
Flu Activity Not available.
METAR KPHX 022151Z 24012G16KT 10SM FEW100 SCT250 41/13 A2981 RMK AO2 SLP070 T04060133

More Conditions Fewer Conditions

Pressure 29.74 in
Visibility 10.0 miles
Clouds Few 10000 ft
Scattered Clouds 25000 ft
Heat Index 104 °F
Dew Point 57 °F
Humidity 21%
Rainfall 0.00 in
Snow Depth Not available.
UV 6.0 out of 12
Pollen 3.90 out of 12
Air Quality Not available.
Flu Activity Not available.
METAR KPHX 022151Z 24012G16KT 10SM FEW100 SCT250 41/13 A2981 RMK AO2 SLP070 T04060133

More Conditions Fewer Conditions

10-Day Weather Forecast

×

Almanac

Astronomy

Jul. 02, 2015 Rise Set
Actual Time
Civil Twilight
Nautical Twilight
Astronomical Twilight
Moon
Length of Visible Light
Length of Day
Tomorrow will be .
, % of the Moon is Illuminated

Today's Extremes

State Highs State Lows

Community

WunderPhotos

Upload Photos

1,834,548 photos uploaded!

WunderBlogs® & News

Nearby

Air Quality

  Air Quality AQ Index Pollutant
Not available.

Snow Depth

Station Depth Elevation

Earthquake Activity

City Distance Mag. Time & Date
Minimum magnitude displayed is 2.5.

Coastal Water Temperatures

Place Temperature

Stations

Nearby Weather Stations

Station Location Temp. Windchill Dew Point Humidity Wind Precip. Elev Updated Type